createdAt,value
2018-08-14T00:00:53.454Z,88.50
2018-08-14T00:03:24.109Z,88.60
2018-08-14T00:05:54.784Z,88.50
2018-08-14T00:08:25.465Z,88.60
2018-08-14T00:10:56.122Z,88.40
2018-08-14T00:13:26.849Z,88.40
2018-08-14T00:15:57.993Z,88.70
2018-08-14T00:18:28.618Z,88.10
2018-08-14T00:20:59.274Z,88.10
2018-08-14T00:23:30.027Z,88.40
2018-08-14T00:26:00.690Z,88.40
2018-08-14T00:28:31.350Z,88.00
2018-08-14T00:31:02.349Z,88.00
2018-08-14T00:33:34.618Z,87.90
2018-08-14T00:36:06.953Z,88.00
2018-08-14T00:38:38.607Z,87.90
2018-08-14T00:41:09.602Z,88.50
2018-08-14T00:43:40.301Z,88.50
2018-08-14T00:46:10.977Z,88.30
2018-08-14T00:48:41.601Z,89.50
2018-08-14T00:51:12.376Z,89.00
2018-08-14T00:53:43.029Z,88.90
2018-08-14T00:56:14.226Z,88.90
2018-08-14T00:58:44.938Z,89.10
2018-08-14T01:01:15.683Z,89.00
2018-08-14T01:03:46.435Z,89.40
2018-08-14T01:06:17.140Z,89.30
2018-08-14T01:08:48.179Z,89.70
2018-08-14T01:11:19.247Z,89.30
2018-08-14T01:13:49.956Z,89.70
2018-08-14T01:16:20.631Z,89.60
2018-08-14T01:18:51.351Z,89.80
2018-08-14T01:21:22.060Z,89.50
2018-08-14T01:23:52.783Z,89.40
2018-08-14T01:26:23.516Z,89.40
2018-08-14T01:28:54.175Z,89.50
2018-08-14T01:31:24.936Z,89.80
2018-08-14T01:33:56.015Z,89.60
2018-08-14T01:36:26.692Z,89.60
2018-08-14T01:38:57.764Z,89.40
2018-08-14T01:41:28.450Z,89.50
2018-08-14T01:43:59.147Z,89.40
2018-08-14T01:46:29.891Z,89.70
2018-08-14T01:49:00.567Z,89.90
2018-08-14T01:51:31.411Z,89.90
2018-08-14T01:54:02.151Z,89.90
2018-08-14T01:56:32.895Z,89.90
2018-08-14T01:59:03.655Z,89.60
2018-08-14T02:01:34.363Z,89.20
2018-08-14T02:04:05.124Z,88.60
2018-08-14T02:06:36.232Z,88.30
2018-08-14T02:09:08.983Z,88.30
2018-08-14T02:11:40.044Z,88.10
2018-08-14T02:14:10.792Z,88.00
2018-08-14T02:16:41.499Z,87.60
2018-08-14T02:19:12.198Z,87.40
2018-08-14T02:21:42.935Z,87.30
2018-08-14T02:24:13.607Z,86.80
2018-08-14T02:26:44.343Z,86.70
2018-08-14T02:29:15.346Z,86.60
2018-08-14T02:31:46.390Z,86.60
2018-08-14T02:34:17.399Z,86.70
2018-08-14T02:36:48.129Z,87.00
2018-08-14T02:39:18.992Z,86.90
2018-08-14T02:41:50.088Z,86.80
2018-08-14T02:44:20.746Z,86.80
2018-08-14T02:46:52.197Z,86.70
2018-08-14T02:49:22.884Z,86.80
2018-08-14T02:51:53.595Z,87.10
2018-08-14T02:54:24.408Z,87.30
2018-08-14T02:56:55.710Z,87.70
2018-08-14T02:59:26.447Z,87.60
2018-08-14T03:01:57.131Z,87.40
2018-08-14T03:04:27.843Z,87.30
2018-08-14T03:06:58.514Z,87.20
2018-08-14T03:09:29.198Z,86.90
2018-08-14T03:11:59.887Z,87.00
2018-08-14T03:14:30.610Z,87.30
2018-08-14T03:17:01.338Z,87.50
2018-08-14T03:19:32.010Z,87.20
2018-08-14T03:22:02.887Z,87.20
2018-08-14T03:24:33.939Z,87.50
2018-08-14T03:27:05.028Z,87.40
2018-08-14T03:29:35.711Z,87.20
2018-08-14T03:32:06.919Z,87.70
2018-08-14T03:34:37.782Z,86.70
2018-08-14T03:37:08.582Z,86.70
2018-08-14T03:39:39.268Z,86.90
2018-08-14T03:42:09.955Z,86.00
2018-08-14T03:44:40.599Z,86.20
2018-08-14T03:47:11.717Z,86.00
2018-08-14T03:49:42.857Z,86.10
2018-08-14T03:52:13.543Z,86.40
2018-08-14T03:54:44.222Z,86.50
2018-08-14T03:57:14.910Z,86.10
2018-08-14T03:59:45.938Z,86.00
2018-08-14T04:02:16.622Z,86.40
2018-08-14T04:04:47.658Z,85.90
2018-08-14T04:07:18.355Z,85.30
2018-08-14T04:09:49.038Z,85.30
2018-08-14T04:12:19.799Z,85.40
2018-08-14T04:14:50.454Z,85.30
2018-08-14T04:17:21.119Z,85.30
2018-08-14T04:19:51.807Z,85.10
2018-08-14T04:22:22.502Z,85.20
2018-08-14T04:24:53.169Z,85.00
2018-08-14T04:27:23.867Z,85.20
2018-08-14T04:29:54.578Z,85.00
2018-08-14T04:32:25.234Z,84.80
2018-08-14T04:34:56.233Z,84.80
2018-08-14T04:37:26.919Z,84.90
2018-08-14T04:39:57.621Z,84.70
2018-08-14T04:42:28.299Z,84.80
2018-08-14T04:44:58.956Z,84.90
2018-08-14T04:47:29.602Z,84.80
2018-08-14T04:50:00.319Z,85.80
2018-08-14T04:52:31.011Z,85.00
2018-08-14T04:55:01.695Z,85.30
2018-08-14T04:57:32.695Z,85.30
2018-08-14T05:00:03.667Z,85.20
2018-08-14T05:02:34.697Z,85.50
2018-08-14T05:05:07.283Z,85.30
2018-08-14T05:07:38.374Z,85.30
2018-08-14T05:10:10.580Z,85.10
2018-08-14T05:12:41.254Z,85.30
2018-08-14T05:15:12.308Z,85.00
2018-08-14T05:17:43.007Z,85.30
2018-08-14T05:20:14.283Z,85.50
2018-08-14T05:22:45.303Z,85.00
2018-08-14T05:25:16.302Z,85.00
2018-08-14T05:27:46.957Z,84.60
2018-08-14T05:30:18.365Z,84.50
2018-08-14T05:32:49.443Z,84.40
2018-08-14T05:35:20.462Z,85.30
2018-08-14T05:37:51.491Z,83.70
2018-08-14T05:40:22.526Z,84.20
2018-08-14T05:42:53.561Z,84.60
2018-08-14T05:45:24.571Z,84.60
2018-08-14T05:47:55.222Z,83.70
2018-08-14T05:50:25.926Z,83.50
2018-08-14T05:52:56.584Z,83.80
2018-08-14T05:55:27.818Z,83.50
2018-08-14T05:57:58.502Z,83.30
2018-08-14T06:00:29.185Z,82.70
2018-08-14T06:03:00.154Z,83.70
2018-08-14T06:05:30.826Z,82.40
2018-08-14T06:08:01.520Z,83.00
2018-08-14T06:10:32.517Z,83.30
2018-08-14T06:13:03.201Z,83.80
2018-08-14T06:15:34.543Z,83.30
2018-08-14T06:18:05.804Z,82.50
2018-08-14T06:20:36.453Z,82.90
2018-08-14T06:23:08.033Z,82.90
2018-08-14T06:25:38.737Z,82.70
2018-08-14T06:28:09.426Z,83.20
2018-08-14T06:30:40.421Z,82.70
2018-08-14T06:33:11.105Z,82.60
2018-08-14T06:35:41.770Z,82.90
2018-08-14T06:38:12.989Z,82.90
2018-08-14T06:40:43.699Z,83.30
2018-08-14T06:43:14.390Z,83.10
2018-08-14T06:45:45.375Z,83.20
2018-08-14T06:48:16.048Z,82.90
2018-08-14T06:50:46.747Z,83.10
2018-08-14T06:53:17.474Z,83.50
2018-08-14T06:55:48.171Z,83.70
2018-08-14T06:58:18.870Z,83.80
2018-08-14T07:00:49.885Z,83.70
2018-08-14T07:03:20.521Z,83.90
2018-08-14T07:05:51.187Z,84.40
2018-08-14T07:08:22.190Z,84.30
2018-08-14T07:10:52.873Z,84.00
2018-08-14T07:13:23.600Z,84.30
2018-08-14T07:15:54.450Z,83.80
2018-08-14T07:18:25.119Z,84.40
2018-08-14T07:20:55.798Z,83.30
2018-08-14T07:23:26.494Z,83.60
2018-08-14T07:25:57.195Z,83.90
2018-08-14T07:28:28.059Z,84.00
2018-08-14T07:30:58.769Z,84.10
2018-08-14T07:33:29.761Z,83.50
2018-08-14T07:36:00.767Z,83.30
2018-08-14T07:38:31.613Z,83.60
2018-08-14T07:41:02.907Z,83.60
2018-08-14T07:43:33.587Z,83.20
2018-08-14T07:46:04.370Z,83.20
2018-08-14T07:48:35.533Z,82.80
2018-08-14T07:51:06.435Z,83.40
2018-08-14T07:53:37.098Z,83.50
2018-08-14T07:56:07.817Z,84.00
2018-08-14T07:58:38.818Z,83.70
2018-08-14T08:01:09.482Z,83.30
2018-08-14T08:03:40.538Z,83.10
2018-08-14T08:06:11.838Z,82.50
2018-08-14T08:08:42.678Z,83.00
2018-08-14T08:11:13.327Z,82.40
2018-08-14T08:13:43.971Z,81.90
2018-08-14T08:16:14.629Z,81.80
2018-08-14T08:18:45.254Z,81.90
2018-08-14T08:21:15.924Z,82.50
2018-08-14T08:23:46.921Z,82.60
2018-08-14T08:26:24.323Z,83.00
2018-08-14T08:28:55.037Z,82.00
2018-08-14T08:31:25.693Z,82.60
2018-08-14T08:33:56.534Z,82.00
2018-08-14T08:36:27.150Z,81.70
2018-08-14T08:38:57.848Z,81.50
2018-08-14T08:41:28.477Z,81.60
2018-08-14T08:43:59.158Z,81.40
2018-08-14T08:46:30.137Z,81.00
2018-08-14T08:49:00.914Z,81.00
2018-08-14T08:51:31.717Z,80.40
2018-08-14T08:54:03.433Z,80.20
2018-08-14T08:56:34.118Z,80.30
2018-08-14T08:59:05.126Z,80.80
2018-08-14T09:01:35.838Z,80.70
2018-08-14T09:04:06.842Z,81.00
2018-08-14T09:06:37.520Z,81.40
2018-08-14T09:09:10.448Z,81.50
2018-08-14T09:11:41.520Z,80.90
2018-08-14T09:14:12.178Z,81.60
2018-08-14T09:16:42.894Z,83.00
2018-08-14T09:19:13.595Z,83.00
2018-08-14T09:21:44.301Z,82.10
2018-08-14T09:24:15.317Z,82.90
2018-08-14T09:26:46.398Z,84.10
2018-08-14T09:29:17.064Z,85.20
2018-08-14T09:31:48.093Z,85.80
2018-08-14T09:34:18.753Z,86.50
2018-08-14T09:36:49.467Z,86.60
2018-08-14T09:39:20.323Z,88.20
2018-08-14T09:41:51.045Z,88.90
2018-08-14T09:44:21.673Z,88.60
2018-08-14T09:46:52.430Z,88.90
2018-08-14T09:49:23.565Z,87.10
2018-08-14T09:51:54.258Z,86.40
2018-08-14T09:54:24.995Z,86.10
2018-08-14T09:56:56.177Z,85.30
2018-08-14T09:59:26.870Z,85.20
2018-08-14T10:02:02.912Z,88.00
2018-08-14T10:04:39.064Z,85.70
2018-08-14T10:07:15.208Z,84.60
2018-08-14T10:09:45.910Z,82.00
2018-08-14T10:12:16.561Z,80.10
2018-08-14T10:14:51.591Z,78.20
2018-08-14T10:17:22.826Z,77.70
2018-08-14T10:19:54.195Z,77.50
2018-08-14T10:22:25.117Z,77.50
2018-08-14T10:24:55.839Z,76.90
2018-08-14T10:27:26.293Z,74.50
2018-08-14T10:29:56.950Z,71.60
2018-08-14T10:32:28.113Z,74.10
2018-08-14T10:34:58.802Z,72.60
2018-08-14T10:37:29.501Z,73.50
2018-08-14T10:39:59.928Z,73.70
2018-08-14T10:42:30.782Z,74.60
2018-08-14T10:45:01.463Z,75.90
2018-08-14T10:47:32.254Z,74.40
2018-08-14T10:50:02.928Z,75.30
2018-08-14T10:52:33.930Z,75.10
2018-08-14T10:55:04.794Z,73.30
2018-08-14T10:57:35.483Z,70.70
2018-08-14T11:00:11.693Z,72.70
2018-08-14T11:02:42.249Z,71.50
2018-08-14T11:05:12.743Z,72.30
2018-08-14T11:07:44.435Z,70.80
2018-08-14T11:10:17.525Z,71.00
2018-08-14T11:12:47.893Z,71.30
2018-08-14T11:15:18.361Z,71.20
2018-08-14T11:17:48.765Z,70.70
2018-08-14T11:20:21.933Z,71.10
2018-08-14T11:22:52.390Z,71.30
2018-08-14T11:25:22.829Z,71.60
2018-08-14T11:27:53.515Z,70.50
2018-08-14T11:30:25.990Z,72.00
2018-08-14T11:32:56.529Z,71.00
2018-08-14T11:35:32.278Z,70.80
2018-08-14T11:38:02.689Z,70.70
2018-08-14T11:40:33.037Z,69.70
2018-08-14T11:43:03.768Z,69.50
2018-08-14T11:45:34.122Z,68.60
2018-08-14T11:48:04.547Z,67.60
2018-08-14T11:50:35.225Z,68.30
2018-08-14T11:53:05.641Z,67.90
2018-08-14T11:55:36.346Z,70.10
2018-08-14T11:58:07.274Z,69.70
2018-08-14T12:00:38.134Z,69.00
2018-08-14T12:03:08.545Z,70.30
2018-08-14T12:05:38.949Z,67.90
2018-08-14T12:08:09.654Z,68.70
2018-08-14T12:10:40.019Z,66.30
2018-08-14T12:13:17.132Z,66.30
2018-08-14T12:15:47.487Z,67.50
2018-08-14T12:18:17.893Z,66.80
2018-08-14T12:20:48.578Z,67.40
2018-08-14T12:23:19.302Z,68.80
2018-08-14T12:25:49.684Z,69.70
2018-08-14T12:28:20.251Z,69.10
2018-08-14T12:30:50.593Z,66.60
2018-08-14T12:33:20.994Z,63.80
2018-08-14T12:35:51.342Z,65.40
2018-08-14T12:38:21.785Z,66.30
2018-08-14T12:40:52.486Z,65.60
2018-08-14T12:43:23.409Z,64.70
2018-08-14T12:45:53.819Z,64.60
2018-08-14T12:48:24.505Z,66.00
2018-08-14T12:50:54.883Z,64.40
2018-08-14T12:53:25.222Z,63.00
2018-08-14T12:55:55.933Z,63.60
2018-08-14T12:58:26.618Z,62.60
2018-08-14T13:00:57.371Z,62.90
2018-08-14T13:03:28.297Z,63.40
2018-08-14T13:05:59.024Z,65.40
2018-08-14T13:08:29.720Z,66.00
2018-08-14T13:11:00.094Z,66.20
2018-08-14T13:13:30.445Z,66.10
2018-08-14T13:16:00.853Z,66.80
2018-08-14T13:18:31.706Z,66.40
2018-08-14T13:21:02.074Z,64.60
2018-08-14T13:23:32.454Z,63.60
2018-08-14T13:26:02.814Z,64.30
2018-08-14T13:28:33.185Z,61.60
2018-08-14T13:31:03.878Z,60.30
2018-08-14T13:33:34.605Z,60.60
2018-08-14T13:36:05.321Z,58.70
2018-08-14T13:38:36.041Z,58.40
2018-08-14T13:41:06.550Z,58.30
2018-08-14T13:43:37.281Z,59.50
2018-08-14T13:46:08.050Z,59.00
2018-08-14T13:48:38.666Z,59.60
2018-08-14T13:51:09.061Z,60.80
2018-08-14T13:53:39.545Z,59.40
2018-08-14T13:56:10.377Z,59.70
2018-08-14T13:58:41.086Z,59.80
2018-08-14T14:01:11.949Z,61.30
2018-08-14T14:03:42.489Z,59.30
2018-08-14T14:06:12.837Z,57.90
2018-08-14T14:08:43.241Z,58.20
2018-08-14T14:11:13.641Z,57.30
2018-08-14T14:13:44.034Z,57.90
2018-08-14T14:16:14.785Z,59.10
2018-08-14T14:18:45.186Z,58.70
2018-08-14T14:21:15.552Z,58.00
2018-08-14T14:23:45.917Z,57.80
2018-08-14T14:26:16.653Z,58.30
2018-08-14T14:28:47.381Z,58.90
2018-08-14T14:31:17.946Z,60.60
2018-08-14T14:33:48.294Z,62.10
2018-08-14T14:36:18.707Z,62.70
2018-08-14T14:38:49.098Z,63.40
2018-08-14T14:41:19.511Z,63.20
2018-08-14T14:43:49.904Z,65.00
2018-08-14T14:46:20.281Z,64.60
2018-08-14T14:48:50.673Z,65.00
2018-08-14T14:51:21.283Z,65.40
2018-08-14T14:53:51.986Z,64.20
2018-08-14T14:56:22.610Z,65.50
2018-08-14T14:58:53.306Z,63.70
2018-08-14T15:01:24.177Z,65.70
2018-08-14T15:03:54.517Z,64.80
2018-08-14T15:06:24.909Z,65.10
2018-08-14T15:08:55.942Z,66.30
2018-08-14T15:11:26.302Z,66.90
2018-08-14T15:13:57.019Z,67.20
2018-08-14T15:16:27.942Z,67.80
2018-08-14T15:19:09.666Z,68.80
2018-08-14T15:21:40.998Z,69.40
2018-08-14T15:24:11.965Z,67.70
2018-08-14T15:26:43.085Z,68.40
2018-08-14T15:29:17.653Z,67.70
2018-08-14T15:31:57.506Z,67.70
2018-08-14T15:34:29.949Z,69.00
2018-08-14T15:37:02.406Z,69.10
2018-08-14T15:39:32.778Z,69.30
2018-08-14T15:42:03.592Z,69.80
2018-08-14T15:44:33.958Z,70.10
2018-08-14T15:47:04.311Z,70.60
2018-08-14T15:49:34.763Z,70.90
2018-08-14T15:52:05.289Z,71.30
2018-08-14T15:54:35.685Z,71.30
2018-08-14T15:57:06.513Z,71.80
2018-08-14T15:59:36.954Z,72.00
2018-08-14T16:02:07.334Z,72.50
2018-08-14T16:04:38.042Z,71.60
2018-08-14T16:07:08.376Z,70.80
2018-08-14T16:09:38.743Z,71.00
2018-08-14T16:12:09.157Z,70.30
2018-08-14T16:14:39.530Z,69.40
2018-08-14T16:17:10.293Z,69.40
2018-08-14T16:19:40.625Z,68.30
2018-08-14T16:22:11.030Z,68.20
2018-08-14T16:24:41.760Z,66.20
2018-08-14T16:27:12.963Z,66.10
2018-08-14T16:29:43.330Z,65.20
2018-08-14T16:32:13.713Z,66.20
2018-08-14T16:34:44.601Z,66.40
2018-08-14T16:37:15.158Z,66.60
2018-08-14T16:39:45.522Z,66.80
2018-08-14T16:42:15.866Z,66.00
2018-08-14T16:44:46.240Z,66.80
2018-08-14T16:47:16.577Z,67.50
2018-08-14T16:49:46.941Z,67.40
2018-08-14T16:52:17.634Z,68.10
2018-08-14T16:54:48.192Z,68.60
2018-08-14T16:57:18.534Z,68.20
2018-08-14T16:59:48.894Z,69.40
2018-08-14T17:02:19.257Z,69.30
2018-08-14T17:04:49.661Z,68.90
2018-08-14T17:07:20.007Z,69.10
2018-08-14T17:09:50.581Z,70.10
2018-08-14T17:12:20.982Z,69.00
2018-08-14T17:14:52.334Z,69.20
2018-08-14T17:17:22.981Z,69.70
2018-08-14T17:19:52.316Z,70.00
2018-08-14T17:22:22.661Z,70.20
2018-08-14T17:24:53.021Z,70.30
2018-08-14T17:27:23.368Z,70.40
2018-08-14T17:29:53.802Z,70.90
2018-08-14T17:32:24.522Z,71.70
2018-08-14T17:34:55.795Z,71.60
2018-08-14T17:37:26.737Z,71.70
2018-08-14T17:39:57.138Z,72.00
2018-08-14T17:42:27.890Z,71.20
2018-08-14T17:44:58.626Z,70.40
2018-08-14T17:47:28.986Z,70.80
2018-08-14T17:49:59.342Z,70.90
2018-08-14T17:52:29.731Z,71.70
2018-08-14T17:55:00.194Z,70.90
2018-08-14T17:57:31.076Z,70.50
2018-08-14T18:00:01.486Z,70.30
2018-08-14T18:02:33.397Z,70.60
2018-08-14T18:05:04.666Z,69.50
2018-08-14T18:07:35.054Z,70.20
2018-08-14T18:10:07.378Z,70.00
2018-08-14T18:12:39.007Z,69.90
2018-08-14T18:15:12.139Z,70.00
2018-08-14T18:17:43.660Z,69.50
2018-08-14T18:20:16.815Z,70.10
2018-08-14T18:22:48.196Z,69.60
2018-08-14T18:25:20.290Z,70.00
2018-08-14T18:27:52.028Z,70.20
2018-08-14T18:30:23.099Z,70.40
2018-08-14T18:33:00.269Z,70.90
2018-08-14T18:35:30.870Z,70.80
2018-08-14T18:38:01.937Z,70.80
2018-08-14T18:40:32.277Z,70.60
2018-08-14T18:43:02.658Z,70.90
2018-08-14T18:45:33.342Z,71.50
2018-08-14T18:48:03.774Z,71.30
2018-08-14T18:50:34.126Z,71.40
2018-08-14T18:53:04.683Z,72.00
2018-08-14T18:55:35.370Z,72.00
2018-08-14T18:58:06.830Z,72.30
2018-08-14T19:00:37.224Z,72.20
2018-08-14T19:03:07.885Z,72.60
2018-08-14T19:05:38.222Z,72.70
2018-08-14T19:08:08.769Z,73.00
2018-08-14T19:10:39.505Z,72.90
2018-08-14T19:13:09.918Z,73.00
2018-08-14T19:15:40.298Z,74.20
2018-08-14T19:18:11.842Z,73.60
2018-08-14T19:20:42.525Z,73.70
2018-08-14T19:23:12.903Z,73.70
2018-08-14T19:25:43.655Z,73.90
2018-08-14T19:28:13.998Z,74.60
2018-08-14T19:30:44.713Z,74.40
2018-08-14T19:33:15.050Z,74.40
2018-08-14T19:35:45.871Z,75.10
2018-08-14T19:38:16.210Z,74.50
2018-08-14T19:40:46.885Z,74.40
2018-08-14T19:43:17.937Z,74.70
2018-08-14T19:45:48.298Z,74.90
2018-08-14T19:48:19.006Z,75.00
2018-08-14T19:50:49.686Z,75.10
2018-08-14T19:53:20.058Z,75.20
2018-08-14T19:55:50.769Z,75.30
2018-08-14T19:58:21.496Z,75.40
2018-08-14T20:00:52.774Z,75.40
2018-08-14T20:03:23.138Z,75.80
2018-08-14T20:05:53.794Z,75.50
2018-08-14T20:08:24.293Z,76.50
2018-08-14T20:10:54.700Z,76.40
2018-08-14T20:13:25.045Z,76.60
2018-08-14T20:16:00.857Z,77.30
2018-08-14T20:18:31.205Z,76.80
2018-08-14T20:21:01.966Z,77.00
2018-08-14T20:23:32.505Z,77.60
2018-08-14T20:26:04.090Z,77.70
2018-08-14T20:28:34.907Z,78.40
2018-08-14T20:31:05.526Z,77.90
2018-08-14T20:33:35.903Z,77.90
2018-08-14T20:36:06.654Z,78.70
2018-08-14T20:38:37.366Z,78.30
2018-08-14T20:41:07.733Z,78.10
2018-08-14T20:43:38.149Z,78.90
2018-08-14T20:46:08.574Z,78.80
2018-08-14T20:48:38.970Z,78.70
2018-08-14T20:51:09.677Z,78.80
2018-08-14T20:53:40.686Z,78.70
2018-08-14T20:56:11.377Z,78.60
2018-08-14T20:58:42.081Z,78.70
2018-08-14T21:01:12.453Z,79.00
2018-08-14T21:03:42.837Z,79.10
2018-08-14T21:06:13.257Z,79.00
2018-08-14T21:08:43.669Z,79.10
2018-08-14T21:11:16.306Z,79.30
2018-08-14T21:13:46.665Z,79.40
2018-08-14T21:16:24.233Z,79.40
2018-08-14T21:18:56.518Z,79.70
2018-08-14T21:21:27.437Z,79.80
2018-08-14T21:23:57.836Z,79.90
2018-08-14T21:26:28.209Z,79.70
2018-08-14T21:28:58.929Z,79.90
2018-08-14T21:31:29.576Z,79.70
2018-08-14T21:34:00.246Z,79.40
2018-08-14T21:36:30.930Z,79.80
2018-08-14T21:39:01.617Z,79.90
2018-08-14T21:41:32.783Z,80.30
2018-08-14T21:44:03.907Z,80.60
2018-08-14T21:46:34.609Z,80.70
2018-08-14T21:49:04.958Z,80.80
2018-08-14T21:51:35.965Z,81.10
2018-08-14T21:54:06.637Z,81.30
2018-08-14T21:56:37.633Z,81.60
2018-08-14T21:59:08.278Z,81.80
2018-08-14T22:01:38.975Z,82.30
2018-08-14T22:04:09.655Z,81.60
2018-08-14T22:06:40.322Z,82.40
2018-08-14T22:09:10.979Z,82.90
2018-08-14T22:11:41.989Z,82.90
2018-08-14T22:14:13.011Z,82.90
2018-08-14T22:16:43.675Z,82.70
2018-08-14T22:19:14.327Z,82.50
2018-08-14T22:21:45.509Z,82.70
2018-08-14T22:24:16.169Z,82.60
2018-08-14T22:26:46.891Z,82.60
2018-08-14T22:29:17.925Z,82.40
2018-08-14T22:31:48.582Z,82.30
2018-08-14T22:34:19.525Z,81.60
2018-08-14T22:36:50.513Z,82.50
2018-08-14T22:39:21.161Z,82.30
2018-08-14T22:41:51.818Z,81.60
2018-08-14T22:44:23.010Z,82.10
2018-08-14T22:46:53.663Z,81.00
2018-08-14T22:49:24.693Z,80.60
2018-08-14T22:51:55.341Z,81.30
2018-08-14T22:54:26.010Z,81.00
2018-08-14T22:56:56.866Z,80.30
2018-08-14T22:59:27.865Z,80.30
2018-08-14T23:01:58.520Z,80.60
2018-08-14T23:04:29.137Z,80.90
2018-08-14T23:07:00.146Z,81.00
2018-08-14T23:09:30.881Z,81.30
2018-08-14T23:12:01.823Z,81.10
2018-08-14T23:14:32.457Z,82.10
2018-08-14T23:17:03.502Z,82.00
2018-08-14T23:19:34.186Z,82.40
2018-08-14T23:22:04.857Z,81.70
2018-08-14T23:24:35.505Z,82.00
2018-08-14T23:27:06.165Z,82.10
2018-08-14T23:29:36.813Z,82.60
2018-08-14T23:32:07.813Z,82.90
2018-08-14T23:34:38.493Z,83.00
2018-08-14T23:37:09.857Z,83.70
2018-08-14T23:39:40.554Z,83.60
2018-08-14T23:42:11.174Z,83.80
2018-08-14T23:44:42.054Z,83.50
2018-08-14T23:47:12.686Z,83.80
2018-08-14T23:49:50.266Z,83.40
2018-08-14T23:52:20.909Z,83.70
2018-08-14T23:54:51.921Z,83.20
2018-08-14T23:57:22.577Z,82.90
2018-08-14T23:59:53.262Z,82.90
